createdAt,value
2024-04-21T00:02:13.617Z,60.29
2024-04-21T00:04:41.455Z,59.86
2024-04-21T00:07:09.424Z,59.95
2024-04-21T00:09:37.141Z,59.53
2024-04-21T00:12:05.495Z,59.52
2024-04-21T00:14:33.382Z,59.30
2024-04-21T00:17:01.121Z,59.62
2024-04-21T00:19:29.014Z,59.19
2024-04-21T00:21:56.755Z,59.47
2024-04-21T00:24:29.558Z,59.46
2024-04-21T00:26:58.161Z,59.13
2024-04-21T00:29:25.829Z,59.39
2024-04-21T00:31:53.581Z,59.56
2024-04-21T00:34:21.396Z,59.40
2024-04-21T00:36:49.097Z,59.40
2024-04-21T00:39:16.778Z,59.25
2024-04-21T00:41:44.554Z,59.79
2024-04-21T00:44:12.250Z,59.72
2024-04-21T00:46:41.149Z,59.64
2024-04-21T00:49:10.537Z,59.78
2024-04-21T00:51:38.962Z,59.87
2024-04-21T00:54:07.639Z,59.92
2024-04-21T00:56:37.090Z,59.86
2024-04-21T00:59:05.521Z,59.80
2024-04-21T01:01:33.406Z,59.76
2024-04-21T01:04:01.172Z,59.83
2024-04-21T01:06:29.275Z,59.56
2024-04-21T01:08:57.120Z,59.66
2024-04-21T01:11:24.947Z,59.22
2024-04-21T01:13:52.616Z,59.14
2024-04-21T01:16:20.558Z,59.18
2024-04-21T01:18:48.368Z,59.23
2024-04-21T01:21:17.159Z,59.12
2024-04-21T01:23:44.834Z,59.01
2024-04-21T01:26:12.837Z,58.96
2024-04-21T01:28:41.176Z,59.02
2024-04-21T01:31:09.235Z,59.20
2024-04-21T01:33:37.493Z,59.37
2024-04-21T01:36:05.569Z,59.52
2024-04-21T01:38:33.502Z,59.43
2024-04-21T01:41:01.216Z,59.77
2024-04-21T01:43:28.965Z,59.44
2024-04-21T01:45:56.739Z,59.39
2024-04-21T01:48:24.793Z,59.44
2024-04-21T01:50:53.497Z,59.50
2024-04-21T01:53:21.285Z,59.49
2024-04-21T01:55:49.016Z,59.95
2024-04-21T01:58:16.822Z,59.42
2024-04-21T02:00:44.744Z,59.80
2024-04-21T02:03:12.588Z,59.62
2024-04-21T02:05:40.275Z,60.22
2024-04-21T02:08:08.330Z,59.90
2024-04-21T02:10:36.248Z,59.70
2024-04-21T02:13:04.319Z,60.09
2024-04-21T02:15:32.014Z,60.42
2024-04-21T02:17:59.767Z,61.85
2024-04-21T02:20:27.526Z,63.18
2024-04-21T02:22:55.235Z,62.11
2024-04-21T02:25:23.067Z,62.77
2024-04-21T02:27:50.781Z,63.21
2024-04-21T02:30:18.692Z,63.75
2024-04-21T02:32:46.716Z,63.32
2024-04-21T02:35:14.513Z,63.99
2024-04-21T02:37:42.252Z,64.18
2024-04-21T02:40:10.590Z,66.33
2024-04-21T02:42:38.346Z,65.53
2024-04-21T02:45:06.729Z,65.04
2024-04-21T02:47:34.468Z,64.88
2024-04-21T02:50:02.656Z,64.98
2024-04-21T02:52:30.323Z,65.44
2024-04-21T02:54:58.086Z,64.92
2024-04-21T02:57:25.805Z,64.96
2024-04-21T02:59:53.506Z,64.75
2024-04-21T03:02:21.315Z,64.86
2024-04-21T03:04:49.179Z,65.04
2024-04-21T03:07:17.082Z,64.64
2024-04-21T03:09:45.088Z,64.77
2024-04-21T03:12:12.852Z,65.59
2024-04-21T03:14:40.622Z,65.36
2024-04-21T03:17:08.784Z,64.76
2024-04-21T03:19:37.015Z,64.79
2024-04-21T03:22:05.727Z,64.60
2024-04-21T03:24:33.550Z,64.50
2024-04-21T03:27:01.222Z,64.55
2024-04-21T03:29:28.907Z,64.65
2024-04-21T03:31:56.586Z,64.58
2024-04-21T03:34:24.245Z,64.46
2024-04-21T03:36:51.979Z,64.31
2024-04-21T03:39:19.942Z,64.80
2024-04-21T03:41:47.732Z,64.88
2024-04-21T03:44:15.478Z,64.86
2024-04-21T03:46:43.142Z,65.21
2024-04-21T03:49:10.851Z,65.63
2024-04-21T03:51:38.635Z,65.94
2024-04-21T03:54:06.453Z,66.77
2024-04-21T03:56:34.166Z,66.60
2024-04-21T03:59:02.015Z,66.55
2024-04-21T04:01:29.888Z,67.11
2024-04-21T04:03:57.770Z,68.05
2024-04-21T04:06:25.450Z,67.96
2024-04-21T04:08:53.249Z,67.41
2024-04-21T04:11:20.964Z,69.07
2024-04-21T04:13:48.651Z,69.10
2024-04-21T04:16:16.454Z,68.17
2024-04-21T04:18:44.240Z,68.04
2024-04-21T04:21:11.916Z,67.81
2024-04-21T04:23:39.572Z,68.05
2024-04-21T04:26:10.552Z,68.02
2024-04-21T04:28:39.486Z,67.59
2024-04-21T04:31:07.480Z,67.78
2024-04-21T04:33:35.341Z,67.21
2024-04-21T04:36:04.745Z,67.03
2024-04-21T04:38:32.429Z,66.98
2024-04-21T04:41:00.482Z,66.33
2024-04-21T04:43:28.178Z,66.18
2024-04-21T04:45:55.935Z,66.52
2024-04-21T04:48:23.727Z,66.57
2024-04-21T04:50:51.414Z,66.63
2024-04-21T04:53:19.135Z,66.27
2024-04-21T04:55:47.319Z,66.01
2024-04-21T04:58:15.137Z,65.94
2024-04-21T05:00:42.850Z,65.97
2024-04-21T05:03:10.668Z,65.87
2024-04-21T05:05:38.360Z,66.24
2024-04-21T05:08:08.256Z,66.33
2024-04-21T05:10:36.387Z,66.48
2024-04-21T05:13:04.351Z,66.66
2024-04-21T05:15:32.248Z,66.60
2024-04-21T05:18:00.035Z,66.37
2024-04-21T05:20:27.920Z,66.08
2024-04-21T05:22:55.598Z,66.32
2024-04-21T05:25:23.326Z,66.23
2024-04-21T05:27:51.138Z,65.97
2024-04-21T05:30:18.910Z,66.29
2024-04-21T05:32:47.267Z,66.06
2024-04-21T05:35:15.150Z,66.06
2024-04-21T05:37:45.341Z,65.92
2024-04-21T05:40:13.206Z,66.46
2024-04-21T05:42:40.875Z,66.44
2024-04-21T05:45:08.550Z,66.11
2024-04-21T05:47:36.544Z,66.23
2024-04-21T05:50:04.621Z,65.73
2024-04-21T05:52:32.353Z,65.63
2024-04-21T05:55:00.230Z,65.75
2024-04-21T05:57:27.987Z,65.78
2024-04-21T05:59:55.664Z,65.74
2024-04-21T06:02:23.507Z,65.86
2024-04-21T06:04:51.279Z,65.94
2024-04-21T06:07:19.111Z,65.85
2024-04-21T06:09:47.758Z,66.07
2024-04-21T06:12:16.423Z,66.37
2024-04-21T06:14:44.266Z,66.29
2024-04-21T06:17:12.044Z,66.25
2024-04-21T06:19:39.967Z,66.10
2024-04-21T06:22:08.006Z,66.06
2024-04-21T06:24:35.730Z,65.95
2024-04-21T06:27:04.011Z,66.46
2024-04-21T06:29:31.705Z,66.08
2024-04-21T06:31:59.533Z,65.71
2024-04-21T06:34:27.280Z,65.70
2024-04-21T06:36:54.972Z,65.56
2024-04-21T06:39:22.729Z,65.71
2024-04-21T06:41:50.405Z,65.39
2024-04-21T06:44:19.373Z,65.45
2024-04-21T06:46:47.104Z,65.37
2024-04-21T06:49:15.160Z,65.87
2024-04-21T06:52:08.052Z,65.64
2024-04-21T06:54:35.849Z,65.63
2024-04-21T06:57:03.715Z,65.21
2024-04-21T06:59:31.350Z,65.23
2024-04-21T07:01:59.137Z,64.89
2024-04-21T07:04:26.920Z,64.62
2024-04-21T07:06:54.620Z,64.45
2024-04-21T07:09:22.325Z,64.26
2024-04-21T07:11:52.679Z,63.81
2024-04-21T07:14:21.412Z,63.46
2024-04-21T07:16:49.334Z,63.29
2024-04-21T07:19:17.110Z,63.49
2024-04-21T07:21:44.816Z,63.25
2024-04-21T07:24:12.495Z,62.79
2024-04-21T07:26:40.204Z,61.13
2024-04-21T07:29:07.968Z,61.22
2024-04-21T07:31:35.755Z,61.00
2024-04-21T07:34:03.542Z,59.89
2024-04-21T07:36:31.220Z,60.86
2024-04-21T07:38:58.975Z,60.99
2024-04-21T07:41:28.640Z,60.73
2024-04-21T07:43:56.468Z,60.43
2024-04-21T07:46:24.205Z,60.15
2024-04-21T07:48:51.979Z,60.49
2024-04-21T07:51:19.755Z,60.47
2024-04-21T07:53:47.599Z,59.88
2024-04-21T07:56:15.276Z,59.78
2024-04-21T07:58:43.037Z,59.73
2024-04-21T08:01:11.435Z,58.04
2024-04-21T08:03:40.909Z,58.90
2024-04-21T08:06:08.703Z,58.78
2024-04-21T08:08:36.578Z,59.07
2024-04-21T08:11:05.450Z,59.17
2024-04-21T08:13:33.910Z,58.55
2024-04-21T08:16:01.775Z,58.62
2024-04-21T08:18:29.733Z,58.43
2024-04-21T08:20:57.483Z,57.51
2024-04-21T08:23:26.018Z,57.85
2024-04-21T08:25:53.769Z,57.61
2024-04-21T08:28:21.660Z,57.45
2024-04-21T08:30:49.532Z,57.29
2024-04-21T08:33:17.302Z,57.41
2024-04-21T08:35:59.463Z,57.70
2024-04-21T08:38:30.800Z,56.81
2024-04-21T08:41:09.226Z,56.89
2024-04-21T08:43:37.699Z,55.61
2024-04-21T08:46:05.507Z,55.04
2024-04-21T08:48:33.339Z,55.19
2024-04-21T08:51:02.648Z,55.05
2024-04-21T08:53:30.408Z,54.47
2024-04-21T08:56:01.841Z,54.32
2024-04-21T08:58:33.462Z,54.72
2024-04-21T09:01:03.733Z,54.75
2024-04-21T09:03:31.796Z,55.35
2024-04-21T09:06:01.559Z,54.70
2024-04-21T09:08:29.228Z,54.38
2024-04-21T09:10:58.807Z,53.93
2024-04-21T09:13:26.704Z,54.26
2024-04-21T09:15:54.731Z,54.50
2024-04-21T09:18:22.581Z,54.63
2024-04-21T09:20:50.431Z,53.27
2024-04-21T09:23:18.100Z,53.18
2024-04-21T09:25:45.788Z,52.46
2024-04-21T09:28:13.657Z,52.62
2024-04-21T09:30:41.676Z,52.92
2024-04-21T09:33:09.788Z,52.16
2024-04-21T09:35:38.419Z,52.48
2024-04-21T09:38:08.720Z,52.78
2024-04-21T09:40:39.149Z,52.09
2024-04-21T09:43:09.755Z,52.31
2024-04-21T09:45:37.413Z,52.01
2024-04-21T09:48:06.984Z,52.55
2024-04-21T09:50:35.800Z,52.27
2024-04-21T09:53:04.277Z,52.34
2024-04-21T09:55:38.418Z,52.51
2024-04-21T09:58:12.475Z,51.88
2024-04-21T10:00:44.522Z,51.99
2024-04-21T10:03:12.793Z,50.62
2024-04-21T10:05:41.702Z,49.92
2024-04-21T10:08:11.405Z,50.59
2024-04-21T10:10:41.031Z,51.00
2024-04-21T10:13:09.196Z,50.84
2024-04-21T10:15:38.034Z,50.90
2024-04-21T10:18:06.202Z,49.31
2024-04-21T10:20:39.026Z,48.07
2024-04-21T10:23:11.839Z,49.22
2024-04-21T10:25:44.837Z,50.10
2024-04-21T10:28:15.545Z,49.11
2024-04-21T10:30:43.435Z,49.92
2024-04-21T10:33:12.368Z,49.29
2024-04-21T10:35:42.647Z,49.18
2024-04-21T10:38:15.228Z,48.11
2024-04-21T10:40:49.933Z,48.01
2024-04-21T10:43:26.623Z,47.90
2024-04-21T10:46:01.997Z,47.67
2024-04-21T10:48:29.928Z,47.80
2024-04-21T10:50:58.140Z,49.29
2024-04-21T10:53:27.095Z,49.45
2024-04-21T10:55:55.840Z,49.23
2024-04-21T10:58:23.781Z,48.76
2024-04-21T11:00:51.928Z,48.57
2024-04-21T11:03:19.665Z,48.65
2024-04-21T11:06:03.154Z,46.80
2024-04-21T11:08:31.384Z,47.96
2024-04-21T11:10:59.470Z,47.45
2024-04-21T11:13:28.615Z,46.32
2024-04-21T11:15:56.410Z,46.12
2024-04-21T11:18:24.253Z,46.72
2024-04-21T11:20:52.379Z,47.17
2024-04-21T11:23:20.631Z,47.10
2024-04-21T11:25:49.134Z,46.41
2024-04-21T11:28:20.290Z,46.83
2024-04-21T11:30:48.704Z,46.72
2024-04-21T11:33:16.561Z,46.49
2024-04-21T11:35:45.396Z,45.71
2024-04-21T11:38:13.123Z,45.14
2024-04-21T11:40:41.067Z,45.55
2024-04-21T11:43:12.390Z,45.46
2024-04-21T11:45:44.384Z,44.70
2024-04-21T11:48:12.503Z,45.27
2024-04-21T11:50:40.390Z,45.58
2024-04-21T11:53:08.611Z,44.68
2024-04-21T11:55:36.364Z,45.54
2024-04-21T11:58:05.212Z,45.99
2024-04-21T12:00:33.228Z,46.67
2024-04-21T12:03:01.049Z,46.37
2024-04-21T12:05:28.817Z,46.87
2024-04-21T12:07:56.485Z,47.18
2024-04-21T12:10:24.296Z,47.21
2024-04-21T12:12:52.127Z,47.82
2024-04-21T12:15:20.090Z,47.21
2024-04-21T12:17:47.965Z,47.21
2024-04-21T12:20:16.079Z,46.81
2024-04-21T12:22:49.953Z,46.46
2024-04-21T12:25:17.727Z,45.81
2024-04-21T12:27:45.442Z,45.66
2024-04-21T12:30:13.570Z,45.34
2024-04-21T12:32:41.692Z,45.90
2024-04-21T12:35:09.435Z,46.40
2024-04-21T12:37:37.208Z,46.23
2024-04-21T12:40:05.413Z,46.53
2024-04-21T12:42:33.218Z,45.51
2024-04-21T12:45:00.954Z,45.78
2024-04-21T12:47:28.706Z,46.30
2024-04-21T12:49:56.383Z,45.19
2024-04-21T12:52:24.451Z,44.40
2024-04-21T12:54:52.131Z,45.49
2024-04-21T12:57:19.823Z,44.95
2024-04-21T12:59:47.591Z,43.85
2024-04-21T13:02:18.327Z,42.38
2024-04-21T13:04:46.394Z,43.61
2024-04-21T13:07:14.324Z,42.32
2024-04-21T13:09:42.067Z,43.30
2024-04-21T13:12:09.959Z,42.77
2024-04-21T13:14:37.788Z,42.46
2024-04-21T13:17:05.811Z,41.97
2024-04-21T13:19:33.596Z,41.68
2024-04-21T13:22:01.323Z,40.08
2024-04-21T13:24:29.012Z,40.94
2024-04-21T13:26:56.676Z,40.52
2024-04-21T13:29:24.456Z,40.73
2024-04-21T13:31:52.111Z,40.80
2024-04-21T13:34:19.834Z,40.72
2024-04-21T13:36:47.704Z,42.00
2024-04-21T13:39:15.367Z,42.14
2024-04-21T13:41:43.147Z,42.08
2024-04-21T13:44:10.928Z,42.04
2024-04-21T13:46:38.739Z,42.53
2024-04-21T13:49:06.466Z,43.08
2024-04-21T13:51:34.230Z,44.16
2024-04-21T13:54:02.504Z,44.17
2024-04-21T13:56:30.469Z,43.78
2024-04-21T13:58:58.429Z,43.80
2024-04-21T14:01:26.354Z,44.36
2024-04-21T14:03:54.129Z,43.97
2024-04-21T14:06:22.725Z,44.17
2024-04-21T14:08:50.461Z,44.57
2024-04-21T14:11:18.258Z,45.32
2024-04-21T14:13:46.051Z,45.76
2024-04-21T14:16:14.156Z,46.87
2024-04-21T14:18:41.919Z,46.91
2024-04-21T14:21:09.626Z,47.27
2024-04-21T14:23:37.434Z,47.21
2024-04-21T14:26:05.167Z,47.36
2024-04-21T14:28:33.259Z,47.92
2024-04-21T14:31:01.735Z,47.60
2024-04-21T14:33:29.746Z,48.50
2024-04-21T14:35:58.258Z,48.40
2024-04-21T14:38:26.013Z,48.82
2024-04-21T14:40:53.664Z,48.53
2024-04-21T14:43:21.987Z,48.40
2024-04-21T14:45:50.045Z,47.91
2024-04-21T14:48:19.075Z,48.68
2024-04-21T14:50:56.723Z,49.27
2024-04-21T14:53:25.744Z,49.51
2024-04-21T14:56:01.918Z,50.33
2024-04-21T14:58:29.688Z,50.41
2024-04-21T15:00:57.531Z,50.98
2024-04-21T15:03:25.464Z,51.28
2024-04-21T15:05:53.153Z,51.63
2024-04-21T15:08:21.058Z,52.11
2024-04-21T15:10:48.984Z,52.19
2024-04-21T15:13:16.760Z,52.23
2024-04-21T15:15:44.411Z,52.47
2024-04-21T15:18:12.261Z,52.68
2024-04-21T15:20:39.953Z,52.29
2024-04-21T15:23:07.634Z,52.96
2024-04-21T15:25:35.659Z,52.88
2024-04-21T15:28:03.692Z,52.87
2024-04-21T15:30:31.605Z,53.81
2024-04-21T15:32:59.435Z,54.10
2024-04-21T15:35:27.301Z,53.48
2024-04-21T15:37:55.233Z,53.61
2024-04-21T15:40:23.081Z,54.02
2024-04-21T15:42:50.794Z,54.23
2024-04-21T15:45:19.346Z,55.23
2024-04-21T15:47:47.239Z,55.05
2024-04-21T15:50:15.018Z,54.91
2024-04-21T15:52:43.206Z,55.08
2024-04-21T15:55:14.103Z,54.78
2024-04-21T15:57:42.229Z,54.99
2024-04-21T16:00:10.379Z,54.85
2024-04-21T16:02:38.654Z,55.79
2024-04-21T16:05:07.852Z,55.79
2024-04-21T16:07:35.719Z,55.59
2024-04-21T16:10:04.088Z,56.26
2024-04-21T16:12:31.903Z,56.91
2024-04-21T16:14:59.762Z,57.10
2024-04-21T16:17:27.585Z,56.76
2024-04-21T16:19:55.378Z,56.69
2024-04-21T16:22:23.182Z,57.08
2024-04-21T16:24:50.947Z,56.35
2024-04-21T16:27:18.695Z,56.84
2024-04-21T16:29:46.411Z,57.72
2024-04-21T16:32:14.123Z,56.80
2024-04-21T16:34:42.803Z,57.28
2024-04-21T16:37:10.943Z,57.28
2024-04-21T16:39:39.023Z,57.38
2024-04-21T16:42:07.526Z,57.07
2024-04-21T16:44:35.692Z,57.34
2024-04-21T16:47:05.416Z,57.51
2024-04-21T16:49:33.579Z,58.59
2024-04-21T16:52:02.973Z,57.99
2024-04-21T16:54:31.187Z,58.03
2024-04-21T16:57:07.202Z,58.09
2024-04-21T16:59:43.190Z,58.68
2024-04-21T17:02:11.329Z,59.24
2024-04-21T17:04:42.267Z,59.47
2024-04-21T17:07:14.027Z,59.18
2024-04-21T17:09:46.237Z,59.48
2024-04-21T17:12:16.815Z,59.45
2024-04-21T17:14:44.923Z,59.20
2024-04-21T17:17:12.898Z,59.78
2024-04-21T17:19:40.654Z,60.21
2024-04-21T17:22:08.400Z,60.63
2024-04-21T17:24:36.215Z,60.53
2024-04-21T17:27:04.379Z,61.10
2024-04-21T17:29:32.095Z,61.58
2024-04-21T17:31:59.975Z,61.77
2024-04-21T17:34:27.749Z,61.33
2024-04-21T17:36:55.494Z,62.25
2024-04-21T17:39:23.360Z,61.88
2024-04-21T17:41:51.027Z,61.97
2024-04-21T17:44:18.785Z,62.25
2024-04-21T17:46:53.123Z,62.41
2024-04-21T17:49:21.015Z,61.92
2024-04-21T17:51:49.344Z,61.56
2024-04-21T17:54:21.810Z,62.04
2024-04-21T17:56:53.304Z,61.64
2024-04-21T17:59:21.359Z,61.45
2024-04-21T18:01:49.649Z,61.23
2024-04-21T18:04:17.605Z,61.63
2024-04-21T18:06:45.574Z,61.29
2024-04-21T18:09:13.316Z,61.27
2024-04-21T18:11:41.065Z,62.13
2024-04-21T18:14:09.222Z,62.05
2024-04-21T18:16:37.101Z,61.72
2024-04-21T18:19:04.904Z,61.87
2024-04-21T18:21:32.663Z,61.79
2024-04-21T18:24:00.313Z,61.84
2024-04-21T18:26:27.994Z,61.75
2024-04-21T18:28:55.727Z,61.55
2024-04-21T18:31:23.486Z,61.59
2024-04-21T18:33:51.314Z,61.85
2024-04-21T18:36:19.091Z,61.56
2024-04-21T18:38:46.799Z,61.80
2024-04-21T18:41:14.770Z,61.76
2024-04-21T18:43:42.502Z,61.75
2024-04-21T18:46:10.322Z,61.74
2024-04-21T18:48:39.166Z,61.75
2024-04-21T18:51:07.225Z,61.74
2024-04-21T18:53:35.341Z,61.64
2024-04-21T18:56:05.909Z,62.02
2024-04-21T18:58:34.763Z,61.39
2024-04-21T19:01:09.062Z,61.67
2024-04-21T19:03:36.972Z,61.50
2024-04-21T19:06:16.205Z,61.58
2024-04-21T19:08:43.908Z,61.76
2024-04-21T19:11:12.161Z,61.24
2024-04-21T19:13:41.527Z,61.65
2024-04-21T19:16:11.512Z,61.51
2024-04-21T19:18:40.447Z,61.39
2024-04-21T19:21:09.362Z,61.42
2024-04-21T19:23:38.493Z,61.40
2024-04-21T19:26:06.190Z,61.40
2024-04-21T19:28:35.841Z,61.06
2024-04-21T19:31:03.942Z,61.43
2024-04-21T19:33:31.698Z,61.16
2024-04-21T19:35:59.378Z,61.05
2024-04-21T19:38:27.111Z,61.18
2024-04-21T19:40:54.798Z,61.25
2024-04-21T19:43:23.439Z,61.35
2024-04-21T19:45:54.689Z,61.13
2024-04-21T19:48:24.430Z,61.25
2024-04-21T19:51:01.759Z,61.15
2024-04-21T19:53:30.001Z,61.63
2024-04-21T19:55:59.832Z,61.22
2024-04-21T19:58:27.583Z,61.12
2024-04-21T20:01:02.785Z,61.53
2024-04-21T20:03:30.711Z,61.33
2024-04-21T20:05:58.432Z,61.83
2024-04-21T20:08:26.115Z,61.58
2024-04-21T20:10:53.907Z,61.68
2024-04-21T20:13:21.952Z,61.76
2024-04-21T20:16:14.793Z,61.92
2024-04-21T20:18:44.640Z,62.06
2024-04-21T20:21:12.676Z,62.11
2024-04-21T20:23:40.456Z,62.15
2024-04-21T20:26:14.328Z,62.44
2024-04-21T20:28:43.079Z,62.25
2024-04-21T20:31:21.469Z,62.57
2024-04-21T20:33:49.297Z,62.34
2024-04-21T20:36:22.416Z,62.39
2024-04-21T20:38:52.022Z,62.24
2024-04-21T20:41:21.416Z,61.77
2024-04-21T20:43:51.786Z,62.15
2024-04-21T20:46:22.311Z,62.17
2024-04-21T20:48:51.692Z,62.95
2024-04-21T20:51:19.659Z,62.39
2024-04-21T20:53:47.350Z,62.99
2024-04-21T20:56:15.075Z,62.71
2024-04-21T20:58:50.233Z,62.56
2024-04-21T21:01:20.887Z,62.42
2024-04-21T21:03:50.037Z,62.49
2024-04-21T21:06:20.065Z,62.17
2024-04-21T21:08:48.668Z,62.36
2024-04-21T21:11:16.699Z,62.38
2024-04-21T21:13:44.765Z,62.19
2024-04-21T21:16:12.676Z,62.39
2024-04-21T21:18:40.415Z,62.10
2024-04-21T21:21:08.423Z,62.00
2024-04-21T21:23:36.190Z,62.01
2024-04-21T21:26:04.128Z,61.94
2024-04-21T21:28:31.949Z,62.07
2024-04-21T21:31:02.604Z,62.01
2024-04-21T21:33:30.369Z,62.23
2024-04-21T21:35:58.648Z,62.24
2024-04-21T21:38:29.748Z,62.17
2024-04-21T21:40:57.828Z,62.18
2024-04-21T21:43:25.916Z,61.97
2024-04-21T21:45:53.728Z,62.12
2024-04-21T21:48:21.500Z,61.70
2024-04-21T21:50:49.282Z,62.06
2024-04-21T21:53:17.071Z,61.89
2024-04-21T21:55:45.021Z,61.86
2024-04-21T21:58:12.847Z,61.79
2024-04-21T22:00:41.061Z,61.93
2024-04-21T22:03:10.699Z,61.79
2024-04-21T22:05:39.496Z,62.00
2024-04-21T22:08:07.600Z,61.74
2024-04-21T22:10:35.428Z,61.97
2024-04-21T22:13:03.302Z,61.74
2024-04-21T22:15:30.967Z,61.49
2024-04-21T22:17:58.990Z,61.78
2024-04-21T22:20:26.781Z,61.17
2024-04-21T22:22:54.537Z,61.49
2024-04-21T22:25:22.394Z,61.78
2024-04-21T22:27:51.583Z,61.65
2024-04-21T22:30:19.347Z,61.37
2024-04-21T22:32:48.180Z,61.68
2024-04-21T22:35:17.611Z,61.43
2024-04-21T22:37:45.565Z,61.16
2024-04-21T22:40:13.321Z,61.16
2024-04-21T22:42:43.325Z,61.27
2024-04-21T22:45:11.649Z,60.75
2024-04-21T22:47:40.601Z,60.81
2024-04-21T22:50:09.426Z,61.18
2024-04-21T22:52:37.259Z,60.77
2024-04-21T22:55:05.385Z,61.13
2024-04-21T22:57:33.124Z,60.94
2024-04-21T23:00:00.881Z,61.17
2024-04-21T23:02:28.847Z,61.13
2024-04-21T23:04:56.566Z,60.81
2024-04-21T23:07:24.370Z,61.05
2024-04-21T23:09:52.151Z,61.43
2024-04-21T23:12:20.794Z,61.34
2024-04-21T23:14:48.551Z,61.33
2024-04-21T23:17:16.358Z,61.21
2024-04-21T23:19:44.055Z,61.13
2024-04-21T23:22:12.470Z,61.30
2024-04-21T23:24:40.150Z,61.31
2024-04-21T23:27:07.834Z,60.79
2024-04-21T23:29:35.483Z,60.96
2024-04-21T23:32:03.373Z,60.54
2024-04-21T23:34:31.079Z,60.77
2024-04-21T23:36:58.904Z,60.74
2024-04-21T23:39:26.650Z,61.05
2024-04-21T23:41:54.394Z,60.94
2024-04-21T23:44:22.182Z,61.26
2024-04-21T23:46:50.041Z,61.24
2024-04-21T23:49:17.890Z,61.16
2024-04-21T23:51:45.678Z,61.03
2024-04-21T23:54:13.405Z,60.99
2024-04-21T23:56:41.694Z,61.27
2024-04-21T23:59:09.372Z,60.97
